sensor_id;sensor_type;location;lat;lon;timestamp;temperature;humidity
65046;DHT22;54657;52.022;5.534;2023-05-29T00:01:18;12.60;73.90
65046;DHT22;54657;52.022;5.534;2023-05-29T00:03:44;12.50;74.80
65046;DHT22;54657;52.022;5.534;2023-05-29T00:06:10;12.40;75.70
65046;DHT22;54657;52.022;5.534;2023-05-29T00:08:36;12.50;75.00
65046;DHT22;54657;52.022;5.534;2023-05-29T00:11:01;12.50;75.40
65046;DHT22;54657;52.022;5.534;2023-05-29T00:13:27;12.40;75.60
65046;DHT22;54657;52.022;5.534;2023-05-29T00:15:52;12.30;75.20
65046;DHT22;54657;52.022;5.534;2023-05-29T00:18:18;12.40;76.10
65046;DHT22;54657;52.022;5.534;2023-05-29T00:20:43;12.30;75.30
65046;DHT22;54657;52.022;5.534;2023-05-29T00:23:10;12.30;75.40
65046;DHT22;54657;52.022;5.534;2023-05-29T00:25:35;12.40;75.70
65046;DHT22;54657;52.022;5.534;2023-05-29T00:28:01;12.40;75.60
65046;DHT22;54657;52.022;5.534;2023-05-29T00:30:27;12.30;75.50
65046;DHT22;54657;52.022;5.534;2023-05-29T00:32:52;12.30;75.10
65046;DHT22;54657;52.022;5.534;2023-05-29T00:35:19;12.20;75.80
65046;DHT22;54657;52.022;5.534;2023-05-29T00:37:45;12.30;76.70
65046;DHT22;54657;52.022;5.534;2023-05-29T00:40:11;12.30;75.80
65046;DHT22;54657;52.022;5.534;2023-05-29T00:42:37;12.20;76.10
65046;DHT22;54657;52.022;5.534;2023-05-29T00:45:02;12.30;75.60
65046;DHT22;54657;52.022;5.534;2023-05-29T00:47:28;12.30;75.70
65046;DHT22;54657;52.022;5.534;2023-05-29T00:49:55;12.20;76.10
65046;DHT22;54657;52.022;5.534;2023-05-29T00:52:22;12.20;77.10
65046;DHT22;54657;52.022;5.534;2023-05-29T00:54:48;12.20;76.50
65046;DHT22;54657;52.022;5.534;2023-05-29T00:57:14;12.20;76.80
65046;DHT22;54657;52.022;5.534;2023-05-29T00:59:42;12.20;77.30
65046;DHT22;54657;52.022;5.534;2023-05-29T01:02:09;12.20;77.60
65046;DHT22;54657;52.022;5.534;2023-05-29T01:04:35;12.30;78.10
65046;DHT22;54657;52.022;5.534;2023-05-29T01:07:02;12.00;78.30
65046;DHT22;54657;52.022;5.534;2023-05-29T01:09:31;11.90;78.80
65046;DHT22;54657;52.022;5.534;2023-05-29T01:12:23;11.90;79.60
65046;DHT22;54657;52.022;5.534;2023-05-29T01:15:16;12.00;80.60
65046;DHT22;54657;52.022;5.534;2023-05-29T01:23:27;12.10;82.50
65046;DHT22;54657;52.022;5.534;2023-05-29T01:28:29;12.00;86.70
65046;DHT22;54657;52.022;5.534;2023-05-29T01:30:58;11.90;82.70
65046;DHT22;54657;52.022;5.534;2023-05-29T01:33:26;11.90;82.20
65046;DHT22;54657;52.022;5.534;2023-05-29T01:35:52;11.90;81.50
65046;DHT22;54657;52.022;5.534;2023-05-29T01:38:18;11.80;82.20
65046;DHT22;54657;52.022;5.534;2023-05-29T01:40:44;11.90;82.00
65046;DHT22;54657;52.022;5.534;2023-05-29T01:43:10;11.80;81.80
65046;DHT22;54657;52.022;5.534;2023-05-29T01:45:36;12.00;81.70
65046;DHT22;54657;52.022;5.534;2023-05-29T01:48:02;11.80;82.30
65046;DHT22;54657;52.022;5.534;2023-05-29T01:50:28;11.90;82.00
65046;DHT22;54657;52.022;5.534;2023-05-29T01:52:54;11.90;81.80
65046;DHT22;54657;52.022;5.534;2023-05-29T01:55:20;11.80;82.20
65046;DHT22;54657;52.022;5.534;2023-05-29T01:57:46;11.80;82.10
65046;DHT22;54657;52.022;5.534;2023-05-29T02:00:12;11.70;82.60
65046;DHT22;54657;52.022;5.534;2023-05-29T02:02:38;11.70;82.40
65046;DHT22;54657;52.022;5.534;2023-05-29T02:05:06;11.60;82.10
65046;DHT22;54657;52.022;5.534;2023-05-29T02:07:33;11.60;82.20
65046;DHT22;54657;52.022;5.534;2023-05-29T02:09:59;11.50;82.40
65046;DHT22;54657;52.022;5.534;2023-05-29T02:12:24;11.50;83.20
65046;DHT22;54657;52.022;5.534;2023-05-29T02:14:50;11.50;83.10
65046;DHT22;54657;52.022;5.534;2023-05-29T02:17:16;11.50;82.80
65046;DHT22;54657;52.022;5.534;2023-05-29T02:19:41;11.40;82.90
65046;DHT22;54657;52.022;5.534;2023-05-29T02:22:07;11.40;82.90
65046;DHT22;54657;52.022;5.534;2023-05-29T02:24:33;11.50;82.80
65046;DHT22;54657;52.022;5.534;2023-05-29T02:26:58;11.40;83.30
65046;DHT22;54657;52.022;5.534;2023-05-29T02:29:24;11.30;83.30
65046;DHT22;54657;52.022;5.534;2023-05-29T02:31:50;11.30;83.20
65046;DHT22;54657;52.022;5.534;2023-05-29T02:34:15;11.30;83.40
65046;DHT22;54657;52.022;5.534;2023-05-29T02:36:41;11.30;83.60
65046;DHT22;54657;52.022;5.534;2023-05-29T02:39:07;11.50;83.70
65046;DHT22;54657;52.022;5.534;2023-05-29T02:41:32;11.40;83.70
65046;DHT22;54657;52.022;5.534;2023-05-29T02:43:58;11.30;83.50
65046;DHT22;54657;52.022;5.534;2023-05-29T02:46:23;11.40;83.80
65046;DHT22;54657;52.022;5.534;2023-05-29T02:48:49;11.30;83.40
65046;DHT22;54657;52.022;5.534;2023-05-29T02:51:15;11.20;84.30
65046;DHT22;54657;52.022;5.534;2023-05-29T02:53:40;11.20;84.50
65046;DHT22;54657;52.022;5.534;2023-05-29T02:56:07;11.10;84.10
65046;DHT22;54657;52.022;5.534;2023-05-29T02:58:34;11.20;84.60
65046;DHT22;54657;52.022;5.534;2023-05-29T03:01:01;11.30;84.90
65046;DHT22;54657;52.022;5.534;2023-05-29T03:03:29;11.20;84.50
65046;DHT22;54657;52.022;5.534;2023-05-29T03:05:55;11.10;85.00
65046;DHT22;54657;52.022;5.534;2023-05-29T03:08:20;11.20;85.00
65046;DHT22;54657;52.022;5.534;2023-05-29T03:10:46;11.20;85.30
65046;DHT22;54657;52.022;5.534;2023-05-29T03:13:13;11.10;85.50
65046;DHT22;54657;52.022;5.534;2023-05-29T03:15:38;11.10;85.10
65046;DHT22;54657;52.022;5.534;2023-05-29T03:18:04;11.10;85.30
65046;DHT22;54657;52.022;5.534;2023-05-29T03:20:29;11.00;86.00
65046;DHT22;54657;52.022;5.534;2023-05-29T03:22:55;11.00;86.50
65046;DHT22;54657;52.022;5.534;2023-05-29T03:25:21;11.00;87.20
65046;DHT22;54657;52.022;5.534;2023-05-29T03:27:46;10.90;86.70
65046;DHT22;54657;52.022;5.534;2023-05-29T03:30:12;10.90;87.00
65046;DHT22;54657;52.022;5.534;2023-05-29T03:32:38;11.00;86.60
65046;DHT22;54657;52.022;5.534;2023-05-29T03:35:03;10.90;86.30
65046;DHT22;54657;52.022;5.534;2023-05-29T03:37:29;10.90;85.30
65046;DHT22;54657;52.022;5.534;2023-05-29T03:39:55;10.90;84.20
65046;DHT22;54657;52.022;5.534;2023-05-29T03:42:21;11.00;82.90
65046;DHT22;54657;52.022;5.534;2023-05-29T03:44:46;10.90;82.40
65046;DHT22;54657;52.022;5.534;2023-05-29T03:47:12;10.80;82.50
65046;DHT22;54657;52.022;5.534;2023-05-29T03:49:38;10.90;81.30
65046;DHT22;54657;52.022;5.534;2023-05-29T03:52:04;10.90;80.70
65046;DHT22;54657;52.022;5.534;2023-05-29T03:54:30;10.90;79.60
65046;DHT22;54657;52.022;5.534;2023-05-29T03:56:55;10.90;78.70
65046;DHT22;54657;52.022;5.534;2023-05-29T03:59:21;10.90;78.80
65046;DHT22;54657;52.022;5.534;2023-05-29T04:01:46;10.90;78.80
65046;DHT22;54657;52.022;5.534;2023-05-29T04:04:12;11.00;78.80
65046;DHT22;54657;52.022;5.534;2023-05-29T04:06:37;10.80;77.90
65046;DHT22;54657;52.022;5.534;2023-05-29T04:09:04;10.90;78.70
65046;DHT22;54657;52.022;5.534;2023-05-29T04:11:32;10.90;78.80
65046;DHT22;54657;52.022;5.534;2023-05-29T04:14:03;11.00;78.80
65046;DHT22;54657;52.022;5.534;2023-05-29T04:16:29;10.90;78.10
65046;DHT22;54657;52.022;5.534;2023-05-29T04:18:55;10.90;77.60
65046;DHT22;54657;52.022;5.534;2023-05-29T04:21:21;10.90;77.80
65046;DHT22;54657;52.022;5.534;2023-05-29T04:23:47;10.90;77.40
65046;DHT22;54657;52.022;5.534;2023-05-29T04:26:12;10.90;77.70
65046;DHT22;54657;52.022;5.534;2023-05-29T04:28:38;10.90;77.90
65046;DHT22;54657;52.022;5.534;2023-05-29T04:31:04;11.00;78.00
65046;DHT22;54657;52.022;5.534;2023-05-29T04:33:31;11.10;77.30
65046;DHT22;54657;52.022;5.534;2023-05-29T04:35:58;11.10;77.50
65046;DHT22;54657;52.022;5.534;2023-05-29T04:38:26;11.20;77.80
65046;DHT22;54657;52.022;5.534;2023-05-29T04:40:52;11.30;77.00
65046;DHT22;54657;52.022;5.534;2023-05-29T04:43:18;11.40;76.60
65046;DHT22;54657;52.022;5.534;2023-05-29T04:45:44;11.40;76.30
65046;DHT22;54657;52.022;5.534;2023-05-29T04:48:10;11.40;76.50
65046;DHT22;54657;52.022;5.534;2023-05-29T04:50:35;11.40;76.40
65046;DHT22;54657;52.022;5.534;2023-05-29T04:53:02;11.40;76.60
65046;DHT22;54657;52.022;5.534;2023-05-29T04:55:27;11.40;77.00
65046;DHT22;54657;52.022;5.534;2023-05-29T04:57:53;11.50;76.90
65046;DHT22;54657;52.022;5.534;2023-05-29T05:00:19;11.50;76.50
65046;DHT22;54657;52.022;5.534;2023-05-29T05:02:45;11.60;76.40
65046;DHT22;54657;52.022;5.534;2023-05-29T05:05:11;11.40;76.60
65046;DHT22;54657;52.022;5.534;2023-05-29T05:07:38;11.40;76.70
65046;DHT22;54657;52.022;5.534;2023-05-29T05:10:04;11.40;77.30
65046;DHT22;54657;52.022;5.534;2023-05-29T05:12:29;11.50;77.00
65046;DHT22;54657;52.022;5.534;2023-05-29T05:14:55;11.60;76.80
65046;DHT22;54657;52.022;5.534;2023-05-29T05:17:21;11.60;76.60
65046;DHT22;54657;52.022;5.534;2023-05-29T05:19:47;11.60;76.00
65046;DHT22;54657;52.022;5.534;2023-05-29T05:22:14;11.70;76.10
65046;DHT22;54657;52.022;5.534;2023-05-29T05:24:40;11.70;75.80
65046;DHT22;54657;52.022;5.534;2023-05-29T05:27:06;11.80;75.60
65046;DHT22;54657;52.022;5.534;2023-05-29T05:29:31;11.80;75.60
65046;DHT22;54657;52.022;5.534;2023-05-29T05:31:59;11.80;75.50
65046;DHT22;54657;52.022;5.534;2023-05-29T05:34:25;11.70;75.30
65046;DHT22;54657;52.022;5.534;2023-05-29T05:36:50;11.70;75.30
65046;DHT22;54657;52.022;5.534;2023-05-29T05:39:16;11.70;75.50
65046;DHT22;54657;52.022;5.534;2023-05-29T05:41:41;11.70;75.10
65046;DHT22;54657;52.022;5.534;2023-05-29T05:44:07;11.70;75.10
65046;DHT22;54657;52.022;5.534;2023-05-29T05:46:33;11.80;75.50
65046;DHT22;54657;52.022;5.534;2023-05-29T05:48:58;11.80;75.10
65046;DHT22;54657;52.022;5.534;2023-05-29T05:51:26;11.90;75.40
65046;DHT22;54657;52.022;5.534;2023-05-29T05:53:52;11.90;75.00
65046;DHT22;54657;52.022;5.534;2023-05-29T05:56:17;12.00;74.60
65046;DHT22;54657;52.022;5.534;2023-05-29T05:58:43;12.00;74.70
65046;DHT22;54657;52.022;5.534;2023-05-29T06:01:09;11.90;74.70
65046;DHT22;54657;52.022;5.534;2023-05-29T06:03:35;12.00;74.90
65046;DHT22;54657;52.022;5.534;2023-05-29T06:06:03;11.80;75.10
65046;DHT22;54657;52.022;5.534;2023-05-29T06:08:28;12.00;74.80
65046;DHT22;54657;52.022;5.534;2023-05-29T06:10:55;12.00;74.60
65046;DHT22;54657;52.022;5.534;2023-05-29T06:13:20;12.10;74.20
65046;DHT22;54657;52.022;5.534;2023-05-29T06:15:46;12.10;74.30
65046;DHT22;54657;52.022;5.534;2023-05-29T06:18:12;12.20;74.00
65046;DHT22;54657;52.022;5.534;2023-05-29T06:20:38;12.30;73.80
65046;DHT22;54657;52.022;5.534;2023-05-29T06:23:03;12.30;73.90
65046;DHT22;54657;52.022;5.534;2023-05-29T06:25:31;12.30;73.70
65046;DHT22;54657;52.022;5.534;2023-05-29T06:28:00;12.30;73.60
65046;DHT22;54657;52.022;5.534;2023-05-29T06:30:26;12.40;73.70
65046;DHT22;54657;52.022;5.534;2023-05-29T06:32:51;12.40;73.30
65046;DHT22;54657;52.022;5.534;2023-05-29T06:35:17;12.60;73.20
65046;DHT22;54657;52.022;5.534;2023-05-29T06:37:43;12.60;72.90
65046;DHT22;54657;52.022;5.534;2023-05-29T06:40:08;12.70;73.30
65046;DHT22;54657;52.022;5.534;2023-05-29T06:42:34;12.80;72.80
65046;DHT22;54657;52.022;5.534;2023-05-29T06:45:00;12.80;72.60
65046;DHT22;54657;52.022;5.534;2023-05-29T06:47:25;12.90;72.30
65046;DHT22;54657;52.022;5.534;2023-05-29T06:49:51;13.00;72.30
65046;DHT22;54657;52.022;5.534;2023-05-29T06:52:17;13.10;72.20
65046;DHT22;54657;52.022;5.534;2023-05-29T06:54:44;13.20;71.80
65046;DHT22;54657;52.022;5.534;2023-05-29T06:57:12;13.30;71.60
65046;DHT22;54657;52.022;5.534;2023-05-29T06:59:38;13.40;71.40
65046;DHT22;54657;52.022;5.534;2023-05-29T07:02:04;13.40;71.20
65046;DHT22;54657;52.022;5.534;2023-05-29T07:04:29;13.50;70.70
65046;DHT22;54657;52.022;5.534;2023-05-29T07:06:55;13.50;70.70
65046;DHT22;54657;52.022;5.534;2023-05-29T07:09:21;13.60;70.60
65046;DHT22;54657;52.022;5.534;2023-05-29T07:11:46;13.70;70.00
65046;DHT22;54657;52.022;5.534;2023-05-29T07:14:12;13.80;70.00
65046;DHT22;54657;52.022;5.534;2023-05-29T07:16:38;13.90;70.10
65046;DHT22;54657;52.022;5.534;2023-05-29T07:19:03;14.00;69.90
65046;DHT22;54657;52.022;5.534;2023-05-29T07:21:29;14.00;69.70
65046;DHT22;54657;52.022;5.534;2023-05-29T07:23:54;14.00;69.60
65046;DHT22;54657;52.022;5.534;2023-05-29T07:26:20;14.00;69.30
65046;DHT22;54657;52.022;5.534;2023-05-29T07:28:48;14.00;69.50
65046;DHT22;54657;52.022;5.534;2023-05-29T07:31:14;14.00;70.00
65046;DHT22;54657;52.022;5.534;2023-05-29T07:33:40;14.10;69.80
65046;DHT22;54657;52.022;5.534;2023-05-29T07:36:06;14.20;69.50
65046;DHT22;54657;52.022;5.534;2023-05-29T07:38:33;14.20;69.60
65046;DHT22;54657;52.022;5.534;2023-05-29T07:40:58;14.20;69.50
65046;DHT22;54657;52.022;5.534;2023-05-29T07:43:24;14.30;69.80
65046;DHT22;54657;52.022;5.534;2023-05-29T07:45:50;14.50;69.70
65046;DHT22;54657;52.022;5.534;2023-05-29T07:48:15;14.50;69.10
65046;DHT22;54657;52.022;5.534;2023-05-29T07:50:41;14.40;69.20
65046;DHT22;54657;52.022;5.534;2023-05-29T07:53:06;14.50;68.80
65046;DHT22;54657;52.022;5.534;2023-05-29T07:55:33;14.40;68.80
65046;DHT22;54657;52.022;5.534;2023-05-29T07:57:59;14.50;69.00
65046;DHT22;54657;52.022;5.534;2023-05-29T08:00:25;14.50;68.60
65046;DHT22;54657;52.022;5.534;2023-05-29T08:02:51;14.50;68.90
65046;DHT22;54657;52.022;5.534;2023-05-29T08:05:17;14.60;68.70
65046;DHT22;54657;52.022;5.534;2023-05-29T08:07:43;14.60;68.40
65046;DHT22;54657;52.022;5.534;2023-05-29T08:10:09;14.70;68.50
65046;DHT22;54657;52.022;5.534;2023-05-29T08:12:35;14.70;68.40
65046;DHT22;54657;52.022;5.534;2023-05-29T08:15:02;14.80;68.00
65046;DHT22;54657;52.022;5.534;2023-05-29T08:17:27;14.80;68.00
65046;DHT22;54657;52.022;5.534;2023-05-29T08:19:53;14.90;68.00
65046;DHT22;54657;52.022;5.534;2023-05-29T08:22:19;14.80;67.50
65046;DHT22;54657;52.022;5.534;2023-05-29T08:24:45;14.80;67.70
65046;DHT22;54657;52.022;5.534;2023-05-29T08:27:10;14.80;67.50
65046;DHT22;54657;52.022;5.534;2023-05-29T08:29:36;14.80;67.60
65046;DHT22;54657;52.022;5.534;2023-05-29T08:32:03;14.80;67.20
65046;DHT22;54657;52.022;5.534;2023-05-29T08:34:29;14.80;67.70
65046;DHT22;54657;52.022;5.534;2023-05-29T08:36:56;14.90;67.40
65046;DHT22;54657;52.022;5.534;2023-05-29T08:39:21;15.00;67.30
65046;DHT22;54657;52.022;5.534;2023-05-29T08:42:03;15.10;66.80
65046;DHT22;54657;52.022;5.534;2023-05-29T08:44:31;15.10;65.80
65046;DHT22;54657;52.022;5.534;2023-05-29T08:47:01;15.10;66.50
65046;DHT22;54657;52.022;5.534;2023-05-29T08:49:29;15.20;66.50
65046;DHT22;54657;52.022;5.534;2023-05-29T08:52:09;15.30;65.70
65046;DHT22;54657;52.022;5.534;2023-05-29T08:54:36;15.30;65.60
65046;DHT22;54657;52.022;5.534;2023-05-29T08:57:02;15.30;65.70
65046;DHT22;54657;52.022;5.534;2023-05-29T08:59:30;15.40;66.10
65046;DHT22;54657;52.022;5.534;2023-05-29T09:01:56;15.50;66.00
65046;DHT22;54657;52.022;5.534;2023-05-29T09:04:22;15.60;66.00
65046;DHT22;54657;52.022;5.534;2023-05-29T09:06:49;15.70;65.40
65046;DHT22;54657;52.022;5.534;2023-05-29T09:09:18;15.90;65.70
65046;DHT22;54657;52.022;5.534;2023-05-29T09:11:43;16.10;65.50
65046;DHT22;54657;52.022;5.534;2023-05-29T09:14:41;16.10;65.20
65046;DHT22;54657;52.022;5.534;2023-05-29T09:17:09;16.10;63.60
65046;DHT22;54657;52.022;5.534;2023-05-29T09:19:35;16.10;64.40
65046;DHT22;54657;52.022;5.534;2023-05-29T09:22:14;16.00;64.50
65046;DHT22;54657;52.022;5.534;2023-05-29T09:24:41;15.90;63.20
65046;DHT22;54657;52.022;5.534;2023-05-29T09:27:09;15.90;65.10
65046;DHT22;54657;52.022;5.534;2023-05-29T09:29:44;15.90;65.00
65046;DHT22;54657;52.022;5.534;2023-05-29T09:32:11;16.10;63.80
65046;DHT22;54657;52.022;5.534;2023-05-29T09:34:37;16.00;64.20
65046;DHT22;54657;52.022;5.534;2023-05-29T09:37:04;16.00;64.50
65046;DHT22;54657;52.022;5.534;2023-05-29T09:39:48;16.10;64.50
65046;DHT22;54657;52.022;5.534;2023-05-29T09:42:14;16.20;63.70
65046;DHT22;54657;52.022;5.534;2023-05-29T09:44:42;16.10;63.20
65046;DHT22;54657;52.022;5.534;2023-05-29T09:47:08;16.20;63.10
65046;DHT22;54657;52.022;5.534;2023-05-29T09:49:34;16.20;62.70
65046;DHT22;54657;52.022;5.534;2023-05-29T09:51:59;16.20;62.80
65046;DHT22;54657;52.022;5.534;2023-05-29T09:54:27;16.20;63.10
65046;DHT22;54657;52.022;5.534;2023-05-29T09:56:57;16.20;62.80
65046;DHT22;54657;52.022;5.534;2023-05-29T09:59:24;16.20;62.80
65046;DHT22;54657;52.022;5.534;2023-05-29T10:02:04;16.20;63.10
65046;DHT22;54657;52.022;5.534;2023-05-29T10:04:33;16.30;63.00
65046;DHT22;54657;52.022;5.534;2023-05-29T10:09:49;16.50;61.80
65046;DHT22;54657;52.022;5.534;2023-05-29T10:12:22;16.50;61.50
65046;DHT22;54657;52.022;5.534;2023-05-29T10:14:49;16.50;61.30
65046;DHT22;54657;52.022;5.534;2023-05-29T10:17:18;16.60;61.60
65046;DHT22;54657;52.022;5.534;2023-05-29T10:19:50;16.70;61.10
65046;DHT22;54657;52.022;5.534;2023-05-29T10:22:23;16.70;60.00
65046;DHT22;54657;52.022;5.534;2023-05-29T10:24:50;16.70;61.00
65046;DHT22;54657;52.022;5.534;2023-05-29T10:27:20;16.80;61.40
65046;DHT22;54657;52.022;5.534;2023-05-29T10:29:48;17.00;61.40
65046;DHT22;54657;52.022;5.534;2023-05-29T10:32:20;17.00;60.80
65046;DHT22;54657;52.022;5.534;2023-05-29T10:35:12;16.90;58.60
65046;DHT22;54657;52.022;5.534;2023-05-29T10:37:42;16.90;60.40
65046;DHT22;54657;52.022;5.534;2023-05-29T10:40:09;16.90;58.90
65046;DHT22;54657;52.022;5.534;2023-05-29T10:42:48;16.80;60.50
65046;DHT22;54657;52.022;5.534;2023-05-29T10:53:06;16.90;59.40
65046;DHT22;54657;52.022;5.534;2023-05-29T10:55:39;17.00;60.40
65046;DHT22;54657;52.022;5.534;2023-05-29T10:58:10;17.10;59.60
65046;DHT22;54657;52.022;5.534;2023-05-29T11:00:41;17.20;60.10
65046;DHT22;54657;52.022;5.534;2023-05-29T11:03:10;17.30;60.00
65046;DHT22;54657;52.022;5.534;2023-05-29T11:11:00;17.40;59.50
65046;DHT22;54657;52.022;5.534;2023-05-29T11:13:36;17.40;60.20
65046;DHT22;54657;52.022;5.534;2023-05-29T11:19:15;17.50;56.80
65046;DHT22;54657;52.022;5.534;2023-05-29T11:30:15;17.60;59.10
65046;DHT22;54657;52.022;5.534;2023-05-29T11:32:59;17.70;57.50
65046;DHT22;54657;52.022;5.534;2023-05-29T11:35:29;17.70;58.40
65046;DHT22;54657;52.022;5.534;2023-05-29T11:37:56;17.70;57.90
65046;DHT22;54657;52.022;5.534;2023-05-29T11:40:27;17.80;58.50
65046;DHT22;54657;52.022;5.534;2023-05-29T11:42:56;17.70;58.40
65046;DHT22;54657;52.022;5.534;2023-05-29T11:45:24;17.70;58.00
65046;DHT22;54657;52.022;5.534;2023-05-29T11:47:55;17.80;57.60
65046;DHT22;54657;52.022;5.534;2023-05-29T11:50:22;17.80;58.20
65046;DHT22;54657;52.022;5.534;2023-05-29T11:52:51;17.90;58.00
65046;DHT22;54657;52.022;5.534;2023-05-29T11:55:20;17.90;57.50
65046;DHT22;54657;52.022;5.534;2023-05-29T11:57:50;18.00;57.30
65046;DHT22;54657;52.022;5.534;2023-05-29T12:00:17;18.00;57.20
65046;DHT22;54657;52.022;5.534;2023-05-29T12:02:44;18.10;56.90
65046;DHT22;54657;52.022;5.534;2023-05-29T12:05:13;18.20;57.20
65046;DHT22;54657;52.022;5.534;2023-05-29T12:07:47;18.30;55.70
65046;DHT22;54657;52.022;5.534;2023-05-29T12:10:18;18.30;54.30
65046;DHT22;54657;52.022;5.534;2023-05-29T12:12:50;18.30;56.40
65046;DHT22;54657;52.022;5.534;2023-05-29T12:15:16;18.50;56.70
65046;DHT22;54657;52.022;5.534;2023-05-29T12:17:44;18.60;56.70
65046;DHT22;54657;52.022;5.534;2023-05-29T12:20:11;18.70;56.10
65046;DHT22;54657;52.022;5.534;2023-05-29T12:22:38;18.70;56.20
65046;DHT22;54657;52.022;5.534;2023-05-29T12:25:14;18.70;56.00
65046;DHT22;54657;52.022;5.534;2023-05-29T12:27:42;18.70;55.30
65046;DHT22;54657;52.022;5.534;2023-05-29T12:30:13;18.70;55.00
65046;DHT22;54657;52.022;5.534;2023-05-29T12:32:43;18.60;55.30
65046;DHT22;54657;52.022;5.534;2023-05-29T12:35:19;18.70;56.00
65046;DHT22;54657;52.022;5.534;2023-05-29T12:40:23;18.80;54.40
65046;DHT22;54657;52.022;5.534;2023-05-29T12:42:53;18.70;55.00
65046;DHT22;54657;52.022;5.534;2023-05-29T12:45:39;18.80;55.40
65046;DHT22;54657;52.022;5.534;2023-05-29T12:48:41;18.80;52.40
65046;DHT22;54657;52.022;5.534;2023-05-29T12:51:10;18.80;53.40
65046;DHT22;54657;52.022;5.534;2023-05-29T12:53:39;18.80;54.50
65046;DHT22;54657;52.022;5.534;2023-05-29T12:56:12;18.80;55.00
65046;DHT22;54657;52.022;5.534;2023-05-29T12:58:44;18.90;55.30
65046;DHT22;54657;52.022;5.534;2023-05-29T13:01:18;18.90;55.20
65046;DHT22;54657;52.022;5.534;2023-05-29T13:03:58;18.90;55.50
65046;DHT22;54657;52.022;5.534;2023-05-29T13:06:26;18.90;55.30
65046;DHT22;54657;52.022;5.534;2023-05-29T13:09:06;18.80;55.30
65046;DHT22;54657;52.022;5.534;2023-05-29T13:11:33;18.80;54.40
65046;DHT22;54657;52.022;5.534;2023-05-29T13:14:02;18.80;53.70
65046;DHT22;54657;52.022;5.534;2023-05-29T13:16:31;18.80;54.20
65046;DHT22;54657;52.022;5.534;2023-05-29T13:19:00;18.90;54.30
65046;DHT22;54657;52.022;5.534;2023-05-29T13:21:25;19.00;54.80
65046;DHT22;54657;52.022;5.534;2023-05-29T13:24:03;19.00;54.40
65046;DHT22;54657;52.022;5.534;2023-05-29T13:26:43;19.00;52.70
65046;DHT22;54657;52.022;5.534;2023-05-29T13:29:26;19.00;52.70
65046;DHT22;54657;52.022;5.534;2023-05-29T13:32:00;19.00;54.50
65046;DHT22;54657;52.022;5.534;2023-05-29T13:34:44;18.90;53.60
65046;DHT22;54657;52.022;5.534;2023-05-29T13:37:22;18.90;54.20
65046;DHT22;54657;52.022;5.534;2023-05-29T13:39:48;18.80;54.40
65046;DHT22;54657;52.022;5.534;2023-05-29T13:42:19;18.90;54.80
65046;DHT22;54657;52.022;5.534;2023-05-29T13:44:46;18.90;54.60
65046;DHT22;54657;52.022;5.534;2023-05-29T13:47:15;18.90;54.40
65046;DHT22;54657;52.022;5.534;2023-05-29T13:49:43;18.80;53.80
65046;DHT22;54657;52.022;5.534;2023-05-29T13:52:28;18.80;53.60
65046;DHT22;54657;52.022;5.534;2023-05-29T13:54:56;18.90;54.20
65046;DHT22;54657;52.022;5.534;2023-05-29T13:57:27;19.00;54.30
65046;DHT22;54657;52.022;5.534;2023-05-29T13:59:53;19.10;54.00
65046;DHT22;54657;52.022;5.534;2023-05-29T14:02:18;19.10;54.20
65046;DHT22;54657;52.022;5.534;2023-05-29T14:04:57;19.00;54.20
65046;DHT22;54657;52.022;5.534;2023-05-29T14:07:34;19.00;54.10
65046;DHT22;54657;52.022;5.534;2023-05-29T14:10:31;18.90;54.00
65046;DHT22;54657;52.022;5.534;2023-05-29T14:13:00;19.00;54.00
65046;DHT22;54657;52.022;5.534;2023-05-29T14:15:37;19.00;53.20
65046;DHT22;54657;52.022;5.534;2023-05-29T14:18:03;19.10;53.60
65046;DHT22;54657;52.022;5.534;2023-05-29T14:20:40;19.10;53.80
65046;DHT22;54657;52.022;5.534;2023-05-29T14:23:09;19.10;54.20
65046;DHT22;54657;52.022;5.534;2023-05-29T14:25:51;19.10;53.10
65046;DHT22;54657;52.022;5.534;2023-05-29T14:28:23;19.20;52.40
65046;DHT22;54657;52.022;5.534;2023-05-29T14:30:53;19.20;53.30
65046;DHT22;54657;52.022;5.534;2023-05-29T14:36:00;19.20;52.60
65046;DHT22;54657;52.022;5.534;2023-05-29T14:38:28;19.20;52.80
65046;DHT22;54657;52.022;5.534;2023-05-29T14:41:06;19.30;51.90
65046;DHT22;54657;52.022;5.534;2023-05-29T14:43:44;19.30;51.80
65046;DHT22;54657;52.022;5.534;2023-05-29T14:46:17;19.20;52.10
65046;DHT22;54657;52.022;5.534;2023-05-29T14:48:45;19.20;52.60
65046;DHT22;54657;52.022;5.534;2023-05-29T14:51:17;19.20;51.60
65046;DHT22;54657;52.022;5.534;2023-05-29T14:54:19;19.10;52.10
65046;DHT22;54657;52.022;5.534;2023-05-29T14:56:58;19.20;51.90
65046;DHT22;54657;52.022;5.534;2023-05-29T14:59:27;19.20;52.50
65046;DHT22;54657;52.022;5.534;2023-05-29T15:02:02;19.20;52.20
65046;DHT22;54657;52.022;5.534;2023-05-29T15:04:49;19.10;52.10
65046;DHT22;54657;52.022;5.534;2023-05-29T15:07:39;19.20;52.70
65046;DHT22;54657;52.022;5.534;2023-05-29T15:10:12;19.30;52.60
65046;DHT22;54657;52.022;5.534;2023-05-29T15:12:49;19.30;51.50
65046;DHT22;54657;52.022;5.534;2023-05-29T15:15:24;19.20;52.10
65046;DHT22;54657;52.022;5.534;2023-05-29T15:18:00;19.20;51.70
65046;DHT22;54657;52.022;5.534;2023-05-29T15:20:35;19.20;52.10
65046;DHT22;54657;52.022;5.534;2023-05-29T15:23:02;19.10;51.90
65046;DHT22;54657;52.022;5.534;2023-05-29T15:25:30;19.10;52.10
65046;DHT22;54657;52.022;5.534;2023-05-29T15:27:56;19.10;52.00
65046;DHT22;54657;52.022;5.534;2023-05-29T15:30:27;19.10;52.40
65046;DHT22;54657;52.022;5.534;2023-05-29T15:33:00;19.10;51.50
65046;DHT22;54657;52.022;5.534;2023-05-29T15:35:43;19.10;51.40
65046;DHT22;54657;52.022;5.534;2023-05-29T15:38:14;19.10;51.80
65046;DHT22;54657;52.022;5.534;2023-05-29T15:40:46;19.10;52.00
65046;DHT22;54657;52.022;5.534;2023-05-29T15:43:11;19.00;52.10
65046;DHT22;54657;52.022;5.534;2023-05-29T15:45:37;19.00;52.20
65046;DHT22;54657;52.022;5.534;2023-05-29T15:48:08;19.00;52.10
65046;DHT22;54657;52.022;5.534;2023-05-29T15:50:37;19.10;51.90
65046;DHT22;54657;52.022;5.534;2023-05-29T15:53:06;19.00;52.20
65046;DHT22;54657;52.022;5.534;2023-05-29T15:55:31;19.00;52.30
65046;DHT22;54657;52.022;5.534;2023-05-29T15:58:05;19.00;52.40
65046;DHT22;54657;52.022;5.534;2023-05-29T16:00:33;19.00;50.90
65046;DHT22;54657;52.022;5.534;2023-05-29T16:03:02;19.00;51.80
65046;DHT22;54657;52.022;5.534;2023-05-29T16:05:28;18.90;51.90
65046;DHT22;54657;52.022;5.534;2023-05-29T16:07:56;18.90;51.70
65046;DHT22;54657;52.022;5.534;2023-05-29T16:10:31;18.90;51.00
65046;DHT22;54657;52.022;5.534;2023-05-29T16:12:59;18.70;51.30
65046;DHT22;54657;52.022;5.534;2023-05-29T16:15:25;18.80;51.40
65046;DHT22;54657;52.022;5.534;2023-05-29T16:17:59;18.70;51.50
65046;DHT22;54657;52.022;5.534;2023-05-29T16:20:27;18.70;51.80